sensor_id;sensor_type;location;lat;lon;timestamp;temperature;humidity
12268;DHT22;6196;48.398;11.736;2023-03-21T00:01:36;5.40;99.90
12268;DHT22;6196;48.398;11.736;2023-03-21T00:04:03;5.40;99.90
12268;DHT22;6196;48.398;11.736;2023-03-21T00:06:30;5.40;99.90
12268;DHT22;6196;48.398;11.736;2023-03-21T00:08:57;5.50;99.90
12268;DHT22;6196;48.398;11.736;2023-03-21T00:11:24;5.60;99.90
12268;DHT22;6196;48.398;11.736;2023-03-21T00:13:51;5.60;99.90
12268;DHT22;6196;48.398;11.736;2023-03-21T00:16:19;5.60;99.90
12268;DHT22;6196;48.398;11.736;2023-03-21T00:19:00;5.70;99.90
12268;DHT22;6196;48.398;11.736;2023-03-21T00:21:28;5.60;99.90
12268;DHT22;6196;48.398;11.736;2023-03-21T00:24:17;5.70;99.90
12268;DHT22;6196;48.398;11.736;2023-03-21T00:26:44;5.70;99.90
12268;DHT22;6196;48.398;11.736;2023-03-21T00:29:11;5.70;99.90
12268;DHT22;6196;48.398;11.736;2023-03-21T00:31:38;5.70;99.90
12268;DHT22;6196;48.398;11.736;2023-03-21T00:34:05;5.70;99.90
12268;DHT22;6196;48.398;11.736;2023-03-21T00:36:32;5.70;99.90
12268;DHT22;6196;48.398;11.736;2023-03-21T00:38:59;5.70;99.90
12268;DHT22;6196;48.398;11.736;2023-03-21T00:41:26;5.70;99.90
12268;DHT22;6196;48.398;11.736;2023-03-21T00:44:09;5.80;99.90
12268;DHT22;6196;48.398;11.736;2023-03-21T00:46:39;5.80;99.90
12268;DHT22;6196;48.398;11.736;2023-03-21T00:49:17;5.90;99.90
12268;DHT22;6196;48.398;11.736;2023-03-21T00:51:46;6.00;99.90
12268;DHT22;6196;48.398;11.736;2023-03-21T00:54:17;5.90;99.90
12268;DHT22;6196;48.398;11.736;2023-03-21T00:56:44;6.00;99.90
12268;DHT22;6196;48.398;11.736;2023-03-21T00:59:11;6.10;99.90
12268;DHT22;6196;48.398;11.736;2023-03-21T01:01:38;6.10;99.90
12268;DHT22;6196;48.398;11.736;2023-03-21T01:04:05;6.20;99.90
12268;DHT22;6196;48.398;11.736;2023-03-21T01:06:37;6.20;99.90
12268;DHT22;6196;48.398;11.736;2023-03-21T01:09:06;6.20;99.90
12268;DHT22;6196;48.398;11.736;2023-03-21T01:11:36;6.20;99.90
12268;DHT22;6196;48.398;11.736;2023-03-21T01:14:03;6.20;99.90
12268;DHT22;6196;48.398;11.736;2023-03-21T01:16:48;6.30;99.90
12268;DHT22;6196;48.398;11.736;2023-03-21T01:19:21;6.30;99.90
12268;DHT22;6196;48.398;11.736;2023-03-21T01:22:06;6.30;99.90
12268;DHT22;6196;48.398;11.736;2023-03-21T01:24:34;6.30;99.90
12268;DHT22;6196;48.398;11.736;2023-03-21T01:27:12;6.30;99.90
12268;DHT22;6196;48.398;11.736;2023-03-21T01:29:39;6.30;99.90
12268;DHT22;6196;48.398;11.736;2023-03-21T01:32:05;6.30;99.90
12268;DHT22;6196;48.398;11.736;2023-03-21T01:34:32;6.40;99.90
12268;DHT22;6196;48.398;11.736;2023-03-21T01:36:59;6.40;99.90
12268;DHT22;6196;48.398;11.736;2023-03-21T01:39:26;6.40;99.90
12268;DHT22;6196;48.398;11.736;2023-03-21T01:41:53;6.50;99.90
12268;DHT22;6196;48.398;11.736;2023-03-21T01:44:20;6.50;99.90
12268;DHT22;6196;48.398;11.736;2023-03-21T01:46:51;6.60;99.90
12268;DHT22;6196;48.398;11.736;2023-03-21T01:49:37;6.60;99.90
12268;DHT22;6196;48.398;11.736;2023-03-21T01:52:09;6.60;99.90
12268;DHT22;6196;48.398;11.736;2023-03-21T01:54:54;6.70;99.90
12268;DHT22;6196;48.398;11.736;2023-03-21T01:57:27;6.70;99.90
12268;DHT22;6196;48.398;11.736;2023-03-21T02:00:13;6.80;99.90
12268;DHT22;6196;48.398;11.736;2023-03-21T02:02:43;6.90;99.90
12268;DHT22;6196;48.398;11.736;2023-03-21T02:05:23;6.90;99.90
12268;DHT22;6196;48.398;11.736;2023-03-21T02:07:54;7.00;99.90
12268;DHT22;6196;48.398;11.736;2023-03-21T02:10:21;7.00;99.90
12268;DHT22;6196;48.398;11.736;2023-03-21T02:12:48;7.10;99.90
12268;DHT22;6196;48.398;11.736;2023-03-21T02:15:15;7.20;99.90
12268;DHT22;6196;48.398;11.736;2023-03-21T02:38:39;7.20;99.90
12268;DHT22;6196;48.398;11.736;2023-03-21T02:41:17;7.20;99.90
12268;DHT22;6196;48.398;11.736;2023-03-21T02:44:15;7.10;99.90
12268;DHT22;6196;48.398;11.736;2023-03-21T02:47:03;7.10;99.90
12268;DHT22;6196;48.398;11.736;2023-03-21T02:49:48;7.00;99.90
12268;DHT22;6196;48.398;11.736;2023-03-21T02:52:20;7.00;99.90
12268;DHT22;6196;48.398;11.736;2023-03-21T02:55:05;7.10;99.90
12268;DHT22;6196;48.398;11.736;2023-03-21T02:57:41;7.10;99.90
12268;DHT22;6196;48.398;11.736;2023-03-21T03:00:12;7.10;99.90
12268;DHT22;6196;48.398;11.736;2023-03-21T03:02:43;7.10;99.90
12268;DHT22;6196;48.398;11.736;2023-03-21T03:05:19;7.10;99.90
12268;DHT22;6196;48.398;11.736;2023-03-21T03:08:21;7.10;99.90
12268;DHT22;6196;48.398;11.736;2023-03-21T03:11:24;7.10;99.90
12268;DHT22;6196;48.398;11.736;2023-03-21T03:17:31;7.10;99.90
12268;DHT22;6196;48.398;11.736;2023-03-21T03:20:21;7.20;99.90
12268;DHT22;6196;48.398;11.736;2023-03-21T03:23:08;7.20;99.90
12268;DHT22;6196;48.398;11.736;2023-03-21T03:25:45;7.20;99.90
12268;DHT22;6196;48.398;11.736;2023-03-21T03:28:22;7.30;99.90
12268;DHT22;6196;48.398;11.736;2023-03-21T03:30:52;7.30;99.90
12268;DHT22;6196;48.398;11.736;2023-03-21T03:33:37;7.30;99.90
12268;DHT22;6196;48.398;11.736;2023-03-21T03:36:09;7.30;99.90
12268;DHT22;6196;48.398;11.736;2023-03-21T03:38:54;7.30;99.90
12268;DHT22;6196;48.398;11.736;2023-03-21T03:41:26;7.40;99.90
12268;DHT22;6196;48.398;11.736;2023-03-21T03:44:02;7.40;99.90
12268;DHT22;6196;48.398;11.736;2023-03-21T03:46:48;7.40;99.90
12268;DHT22;6196;48.398;11.736;2023-03-21T03:49:24;7.50;99.90
12268;DHT22;6196;48.398;11.736;2023-03-21T03:52:03;7.40;99.90
12268;DHT22;6196;48.398;11.736;2023-03-21T03:54:44;7.40;99.90
12268;DHT22;6196;48.398;11.736;2023-03-21T03:57:12;7.40;99.90
12268;DHT22;6196;48.398;11.736;2023-03-21T03:59:41;7.40;99.90
12268;DHT22;6196;48.398;11.736;2023-03-21T04:02:09;7.50;99.90
12268;DHT22;6196;48.398;11.736;2023-03-21T04:04:37;7.40;99.90
12268;DHT22;6196;48.398;11.736;2023-03-21T04:07:04;7.40;99.90
12268;DHT22;6196;48.398;11.736;2023-03-21T04:09:31;7.40;99.90
12268;DHT22;6196;48.398;11.736;2023-03-21T04:12:11;7.40;99.90
12268;DHT22;6196;48.398;11.736;2023-03-21T04:14:38;7.50;99.90
12268;DHT22;6196;48.398;11.736;2023-03-21T04:17:12;7.40;99.90
12268;DHT22;6196;48.398;11.736;2023-03-21T04:19:39;7.40;99.90
12268;DHT22;6196;48.398;11.736;2023-03-21T04:22:07;7.40;99.90
12268;DHT22;6196;48.398;11.736;2023-03-21T04:24:34;7.50;99.90
12268;DHT22;6196;48.398;11.736;2023-03-21T04:27:02;7.50;99.90
12268;DHT22;6196;48.398;11.736;2023-03-21T04:29:31;7.40;99.90
12268;DHT22;6196;48.398;11.736;2023-03-21T04:31:58;7.40;99.90
12268;DHT22;6196;48.398;11.736;2023-03-21T04:34:25;7.40;99.90
12268;DHT22;6196;48.398;11.736;2023-03-21T04:36:55;7.40;99.90
12268;DHT22;6196;48.398;11.736;2023-03-21T04:39:22;7.40;99.90
12268;DHT22;6196;48.398;11.736;2023-03-21T04:41:50;7.40;99.90
12268;DHT22;6196;48.398;11.736;2023-03-21T04:44:17;7.40;99.90
12268;DHT22;6196;48.398;11.736;2023-03-21T04:46:44;7.40;99.90
12268;DHT22;6196;48.398;11.736;2023-03-21T04:49:11;7.40;99.90
12268;DHT22;6196;48.398;11.736;2023-03-21T04:51:38;7.40;99.90
12268;DHT22;6196;48.398;11.736;2023-03-21T04:54:05;7.40;99.90
12268;DHT22;6196;48.398;11.736;2023-03-21T04:56:32;7.40;99.90
12268;DHT22;6196;48.398;11.736;2023-03-21T04:59:06;7.40;99.90
12268;DHT22;6196;48.398;11.736;2023-03-21T05:01:34;7.40;99.90
12268;DHT22;6196;48.398;11.736;2023-03-21T05:04:02;7.30;99.90
12268;DHT22;6196;48.398;11.736;2023-03-21T05:06:30;7.30;99.90
12268;DHT22;6196;48.398;11.736;2023-03-21T05:08:58;7.30;99.90
12268;DHT22;6196;48.398;11.736;2023-03-21T05:11:31;7.30;99.90
12268;DHT22;6196;48.398;11.736;2023-03-21T05:14:01;7.30;99.90
12268;DHT22;6196;48.398;11.736;2023-03-21T05:16:28;7.30;99.90
12268;DHT22;6196;48.398;11.736;2023-03-21T05:18:57;7.30;99.90
12268;DHT22;6196;48.398;11.736;2023-03-21T05:21:32;7.30;99.90
12268;DHT22;6196;48.398;11.736;2023-03-21T05:24:11;7.30;99.90
12268;DHT22;6196;48.398;11.736;2023-03-21T05:26:40;7.30;99.90
12268;DHT22;6196;48.398;11.736;2023-03-21T05:29:09;7.30;99.90
12268;DHT22;6196;48.398;11.736;2023-03-21T05:31:36;7.30;99.90
12268;DHT22;6196;48.398;11.736;2023-03-21T05:34:03;7.30;99.90
12268;DHT22;6196;48.398;11.736;2023-03-21T05:36:30;7.40;99.90
12268;DHT22;6196;48.398;11.736;2023-03-21T05:38:59;7.50;99.90
12268;DHT22;6196;48.398;11.736;2023-03-21T05:41:27;7.50;99.90
12268;DHT22;6196;48.398;11.736;2023-03-21T05:43:54;7.50;99.90
12268;DHT22;6196;48.398;11.736;2023-03-21T05:46:21;7.60;99.90
12268;DHT22;6196;48.398;11.736;2023-03-21T05:48:48;7.60;99.90
12268;DHT22;6196;48.398;11.736;2023-03-21T05:51:14;7.60;99.90
12268;DHT22;6196;48.398;11.736;2023-03-21T05:53:41;7.60;99.90
12268;DHT22;6196;48.398;11.736;2023-03-21T05:56:08;7.60;99.90
12268;DHT22;6196;48.398;11.736;2023-03-21T05:58:35;7.70;99.90
12268;DHT22;6196;48.398;11.736;2023-03-21T06:01:02;7.70;99.90
12268;DHT22;6196;48.398;11.736;2023-03-21T06:03:29;7.80;99.90
12268;DHT22;6196;48.398;11.736;2023-03-21T06:05:56;7.80;99.90
12268;DHT22;6196;48.398;11.736;2023-03-21T06:08:23;7.80;99.90
12268;DHT22;6196;48.398;11.736;2023-03-21T06:10:50;7.90;99.90
12268;DHT22;6196;48.398;11.736;2023-03-21T06:13:17;8.00;99.90
12268;DHT22;6196;48.398;11.736;2023-03-21T06:15:43;8.10;99.90
12268;DHT22;6196;48.398;11.736;2023-03-21T06:18:10;8.10;99.90
12268;DHT22;6196;48.398;11.736;2023-03-21T06:20:37;8.20;99.90
12268;DHT22;6196;48.398;11.736;2023-03-21T06:23:04;8.30;99.90
12268;DHT22;6196;48.398;11.736;2023-03-21T06:25:31;8.40;99.90
12268;DHT22;6196;48.398;11.736;2023-03-21T06:27:58;8.40;99.90
12268;DHT22;6196;48.398;11.736;2023-03-21T06:30:25;8.40;99.90
12268;DHT22;6196;48.398;11.736;2023-03-21T06:32:52;8.20;99.90
12268;DHT22;6196;48.398;11.736;2023-03-21T06:35:20;8.30;99.90
12268;DHT22;6196;48.398;11.736;2023-03-21T06:37:47;8.50;99.90
12268;DHT22;6196;48.398;11.736;2023-03-21T06:40:15;8.70;99.90
12268;DHT22;6196;48.398;11.736;2023-03-21T06:42:42;8.90;99.90
12268;DHT22;6196;48.398;11.736;2023-03-21T06:45:09;9.10;99.90
12268;DHT22;6196;48.398;11.736;2023-03-21T06:47:36;9.20;99.90
12268;DHT22;6196;48.398;11.736;2023-03-21T06:50:03;9.20;99.90
12268;DHT22;6196;48.398;11.736;2023-03-21T06:52:32;9.30;99.90
12268;DHT22;6196;48.398;11.736;2023-03-21T06:54:59;9.50;99.90
12268;DHT22;6196;48.398;11.736;2023-03-21T06:57:26;9.70;99.90
12268;DHT22;6196;48.398;11.736;2023-03-21T06:59:53;9.40;99.90
12268;DHT22;6196;48.398;11.736;2023-03-21T07:02:19;9.10;99.90
12268;DHT22;6196;48.398;11.736;2023-03-21T07:04:46;9.10;99.90
12268;DHT22;6196;48.398;11.736;2023-03-21T07:07:13;9.00;99.90
12268;DHT22;6196;48.398;11.736;2023-03-21T07:09:41;9.00;99.90
12268;DHT22;6196;48.398;11.736;2023-03-21T07:12:08;9.20;99.90
12268;DHT22;6196;48.398;11.736;2023-03-21T07:14:35;9.50;99.90
12268;DHT22;6196;48.398;11.736;2023-03-21T07:17:02;9.70;99.90
12268;DHT22;6196;48.398;11.736;2023-03-21T07:19:29;9.90;99.90
12268;DHT22;6196;48.398;11.736;2023-03-21T07:21:56;10.30;99.90
12268;DHT22;6196;48.398;11.736;2023-03-21T07:24:23;10.50;99.90
12268;DHT22;6196;48.398;11.736;2023-03-21T07:26:50;10.70;99.90
12268;DHT22;6196;48.398;11.736;2023-03-21T07:29:17;10.90;99.90
12268;DHT22;6196;48.398;11.736;2023-03-21T07:31:46;11.00;99.90
12268;DHT22;6196;48.398;11.736;2023-03-21T07:34:13;11.10;99.90
12268;DHT22;6196;48.398;11.736;2023-03-21T07:36:42;11.20;99.90
12268;DHT22;6196;48.398;11.736;2023-03-21T07:39:08;11.20;99.90
12268;DHT22;6196;48.398;11.736;2023-03-21T07:41:35;11.30;99.90
12268;DHT22;6196;48.398;11.736;2023-03-21T07:44:02;11.20;99.90
12268;DHT22;6196;48.398;11.736;2023-03-21T07:46:29;11.00;99.90
12268;DHT22;6196;48.398;11.736;2023-03-21T07:48:56;10.90;99.90
12268;DHT22;6196;48.398;11.736;2023-03-21T07:51:23;11.00;99.90
12268;DHT22;6196;48.398;11.736;2023-03-21T07:53:50;11.10;99.90
12268;DHT22;6196;48.398;11.736;2023-03-21T07:56:16;11.30;99.90
12268;DHT22;6196;48.398;11.736;2023-03-21T07:58:43;11.40;99.90
12268;DHT22;6196;48.398;11.736;2023-03-21T08:01:10;11.70;99.90
12268;DHT22;6196;48.398;11.736;2023-03-21T08:03:37;11.70;99.90
12268;DHT22;6196;48.398;11.736;2023-03-21T08:06:04;11.80;99.90
12268;DHT22;6196;48.398;11.736;2023-03-21T08:08:32;11.80;99.90
12268;DHT22;6196;48.398;11.736;2023-03-21T08:10:58;12.00;99.90
12268;DHT22;6196;48.398;11.736;2023-03-21T08:13:25;12.10;99.90
12268;DHT22;6196;48.398;11.736;2023-03-21T08:15:53;12.40;99.90
12268;DHT22;6196;48.398;11.736;2023-03-21T08:18:20;12.00;99.90
12268;DHT22;6196;48.398;11.736;2023-03-21T08:20:54;12.10;99.90
12268;DHT22;6196;48.398;11.736;2023-03-21T08:23:22;12.30;99.90
12268;DHT22;6196;48.398;11.736;2023-03-21T08:25:51;12.30;99.90
12268;DHT22;6196;48.398;11.736;2023-03-21T08:28:22;12.50;99.90
12268;DHT22;6196;48.398;11.736;2023-03-21T08:30:49;12.70;99.90
12268;DHT22;6196;48.398;11.736;2023-03-21T08:33:16;13.00;99.90
12268;DHT22;6196;48.398;11.736;2023-03-21T08:35:44;13.20;99.90
12268;DHT22;6196;48.398;11.736;2023-03-21T08:38:12;13.30;99.90
12268;DHT22;6196;48.398;11.736;2023-03-21T08:40:39;13.30;99.90
12268;DHT22;6196;48.398;11.736;2023-03-21T08:43:07;13.40;99.90
12268;DHT22;6196;48.398;11.736;2023-03-21T08:45:33;13.50;99.90
12268;DHT22;6196;48.398;11.736;2023-03-21T08:48:00;13.60;99.90
12268;DHT22;6196;48.398;11.736;2023-03-21T08:50:27;13.80;99.90
12268;DHT22;6196;48.398;11.736;2023-03-21T08:52:57;13.90;99.90
12268;DHT22;6196;48.398;11.736;2023-03-21T08:55:24;13.50;99.90
12268;DHT22;6196;48.398;11.736;2023-03-21T08:57:51;13.60;99.90
12268;DHT22;6196;48.398;11.736;2023-03-21T09:00:18;13.80;99.90
12268;DHT22;6196;48.398;11.736;2023-03-21T09:02:47;14.10;99.90
12268;DHT22;6196;48.398;11.736;2023-03-21T09:05:17;13.20;99.90
12268;DHT22;6196;48.398;11.736;2023-03-21T09:07:44;12.90;99.90
12268;DHT22;6196;48.398;11.736;2023-03-21T09:10:14;13.00;99.90
12268;DHT22;6196;48.398;11.736;2023-03-21T09:12:52;13.60;99.90
12268;DHT22;6196;48.398;11.736;2023-03-21T09:15:25;13.20;99.90
12268;DHT22;6196;48.398;11.736;2023-03-21T09:17:54;12.70;99.90
12268;DHT22;6196;48.398;11.736;2023-03-21T09:20:25;13.30;99.90
12268;DHT22;6196;48.398;11.736;2023-03-21T09:22:57;13.70;99.90
12268;DHT22;6196;48.398;11.736;2023-03-21T09:25:24;13.80;99.90
12268;DHT22;6196;48.398;11.736;2023-03-21T09:27:57;14.10;99.90
12268;DHT22;6196;48.398;11.736;2023-03-21T09:30:25;13.70;99.90
12268;DHT22;6196;48.398;11.736;2023-03-21T09:32:52;14.20;99.90
12268;DHT22;6196;48.398;11.736;2023-03-21T09:35:21;14.70;99.90
12268;DHT22;6196;48.398;11.736;2023-03-21T09:37:49;15.20;99.90
12268;DHT22;6196;48.398;11.736;2023-03-21T09:40:55;15.40;99.90
12268;DHT22;6196;48.398;11.736;2023-03-21T09:44:01;16.00;99.90
12268;DHT22;6196;48.398;11.736;2023-03-21T09:46:49;16.30;99.90
12268;DHT22;6196;48.398;11.736;2023-03-21T09:49:21;16.60;99.90
12268;DHT22;6196;48.398;11.736;2023-03-21T09:51:53;16.20;99.90
12268;DHT22;6196;48.398;11.736;2023-03-21T09:54:29;16.30;99.90
12268;DHT22;6196;48.398;11.736;2023-03-21T09:57:04;16.60;99.90
12268;DHT22;6196;48.398;11.736;2023-03-21T09:59:40;16.10;99.90
12268;DHT22;6196;48.398;11.736;2023-03-21T10:02:41;16.00;99.90
12268;DHT22;6196;48.398;11.736;2023-03-21T10:05:30;16.70;99.90
12268;DHT22;6196;48.398;11.736;2023-03-21T10:08:23;17.20;99.90
12268;DHT22;6196;48.398;11.736;2023-03-21T10:10:56;15.10;99.90
12268;DHT22;6196;48.398;11.736;2023-03-21T10:13:34;14.40;99.90
12268;DHT22;6196;48.398;11.736;2023-03-21T10:16:34;15.00;99.90
12268;DHT22;6196;48.398;11.736;2023-03-21T10:19:15;15.20;99.90
12268;DHT22;6196;48.398;11.736;2023-03-21T10:21:46;16.00;99.90
12268;DHT22;6196;48.398;11.736;2023-03-21T10:24:27;16.10;99.90
12268;DHT22;6196;48.398;11.736;2023-03-21T10:26:56;16.00;99.90
12268;DHT22;6196;48.398;11.736;2023-03-21T10:29:27;15.90;99.90
12268;DHT22;6196;48.398;11.736;2023-03-21T10:31:58;16.60;99.90
12268;DHT22;6196;48.398;11.736;2023-03-21T10:34:36;16.70;99.90
12268;DHT22;6196;48.398;11.736;2023-03-21T10:37:07;16.30;99.90
12268;DHT22;6196;48.398;11.736;2023-03-21T10:39:44;15.70;99.90
12268;DHT22;6196;48.398;11.736;2023-03-21T10:42:19;16.60;99.90
12268;DHT22;6196;48.398;11.736;2023-03-21T10:44:51;16.50;99.90
12268;DHT22;6196;48.398;11.736;2023-03-21T10:47:28;17.20;99.90
12268;DHT22;6196;48.398;11.736;2023-03-21T10:50:19;17.40;99.90
12268;DHT22;6196;48.398;11.736;2023-03-21T10:52:54;16.20;99.90
12268;DHT22;6196;48.398;11.736;2023-03-21T10:55:32;17.60;99.90
12268;DHT22;6196;48.398;11.736;2023-03-21T10:58:05;16.40;99.90
12268;DHT22;6196;48.398;11.736;2023-03-21T11:00:39;17.80;99.90
12268;DHT22;6196;48.398;11.736;2023-03-21T11:03:37;18.60;99.90
12268;DHT22;6196;48.398;11.736;2023-03-21T11:06:38;19.20;99.90
12268;DHT22;6196;48.398;11.736;2023-03-21T11:09:15;19.60;99.90
12268;DHT22;6196;48.398;11.736;2023-03-21T11:12:01;19.90;99.90
12268;DHT22;6196;48.398;11.736;2023-03-21T11:14:44;19.80;99.90
12268;DHT22;6196;48.398;11.736;2023-03-21T11:19:54;18.60;99.90
12268;DHT22;6196;48.398;11.736;2023-03-21T11:22:29;18.20;99.90
12268;DHT22;6196;48.398;11.736;2023-03-21T11:25:06;18.10;99.90
12268;DHT22;6196;48.398;11.736;2023-03-21T11:27:51;18.70;99.90
12268;DHT22;6196;48.398;11.736;2023-03-21T11:30:22;19.00;99.90
12268;DHT22;6196;48.398;11.736;2023-03-21T11:32:57;18.40;99.90
12268;DHT22;6196;48.398;11.736;2023-03-21T11:35:34;18.40;99.90
12268;DHT22;6196;48.398;11.736;2023-03-21T11:38:05;18.80;99.90
12268;DHT22;6196;48.398;11.736;2023-03-21T11:40:34;19.20;99.90
12268;DHT22;6196;48.398;11.736;2023-03-21T11:46:08;19.40;99.90
12268;DHT22;6196;48.398;11.736;2023-03-21T11:48:45;19.90;99.90
12268;DHT22;6196;48.398;11.736;2023-03-21T11:56:39;19.00;99.90
12268;DHT22;6196;48.398;11.736;2023-03-21T11:59:13;19.70;99.90
12268;DHT22;6196;48.398;11.736;2023-03-21T12:11:02;21.90;96.10
12268;DHT22;6196;48.398;11.736;2023-03-21T12:25:32;18.10;97.80
12268;DHT22;6196;48.398;11.736;2023-03-21T12:28:22;18.00;98.50
12268;DHT22;6196;48.398;11.736;2023-03-21T12:39:54;23.20;94.20
12268;DHT22;6196;48.398;11.736;2023-03-21T12:42:56;23.40;94.00
12268;DHT22;6196;48.398;11.736;2023-03-21T12:45:41;24.20;92.50
12268;DHT22;6196;48.398;11.736;2023-03-21T12:48:42;23.90;91.40
12268;DHT22;6196;48.398;11.736;2023-03-21T12:51:17;23.00;92.40
12268;DHT22;6196;48.398;11.736;2023-03-21T12:53:57;23.20;90.20
12268;DHT22;6196;48.398;11.736;2023-03-21T12:56:49;23.30;90.40
12268;DHT22;6196;48.398;11.736;2023-03-21T12:59:28;22.90;90.50
12268;DHT22;6196;48.398;11.736;2023-03-21T13:02:01;22.70;91.70
12268;DHT22;6196;48.398;11.736;2023-03-21T13:05:04;22.60;91.00
12268;DHT22;6196;48.398;11.736;2023-03-21T13:07:38;21.60;90.20
12268;DHT22;6196;48.398;11.736;2023-03-21T13:10:17;21.70;91.00
12268;DHT22;6196;48.398;11.736;2023-03-21T13:16:12;21.90;89.20
12268;DHT22;6196;48.398;11.736;2023-03-21T13:22:10;24.20;87.90
12268;DHT22;6196;48.398;11.736;2023-03-21T13:24:50;26.90;82.20
12268;DHT22;6196;48.398;11.736;2023-03-21T13:32:39;29.50;67.50
12268;DHT22;6196;48.398;11.736;2023-03-21T13:37:57;27.80;70.10
12268;DHT22;6196;48.398;11.736;2023-03-21T13:40:37;27.00;67.50
12268;DHT22;6196;48.398;11.736;2023-03-21T13:43:22;26.60;68.10
12268;DHT22;6196;48.398;11.736;2023-03-21T13:46:08;26.80;67.90
12268;DHT22;6196;48.398;11.736;2023-03-21T13:54:23;23.90;72.90
12268;DHT22;6196;48.398;11.736;2023-03-21T13:56:57;25.40;73.80
12268;DHT22;6196;48.398;11.736;2023-03-21T13:59:40;26.70;70.70
12268;DHT22;6196;48.398;11.736;2023-03-21T14:02:31;27.20;68.80
12268;DHT22;6196;48.398;11.736;2023-03-21T14:05:02;27.00;69.30
12268;DHT22;6196;48.398;11.736;2023-03-21T14:07:35;27.60;67.70
12268;DHT22;6196;48.398;11.736;2023-03-21T14:10:32;26.30;66.50
12268;DHT22;6196;48.398;11.736;2023-03-21T14:13:02;26.20;68.50
12268;DHT22;6196;48.398;11.736;2023-03-21T14:15:41;25.90;69.50
12268;DHT22;6196;48.398;11.736;2023-03-21T14:18:23;27.10;68.70
12268;DHT22;6196;48.398;11.736;2023-03-21T14:21:32;27.40;66.20
12268;DHT22;6196;48.398;11.736;2023-03-21T14:24:05;26.90;66.40
12268;DHT22;6196;48.398;11.736;2023-03-21T14:26:36;26.80;67.90
12268;DHT22;6196;48.398;11.736;2023-03-21T14:29:07;26.10;65.20
12268;DHT22;6196;48.398;11.736;2023-03-21T14:31:52;25.90;68.30
12268;DHT22;6196;48.398;11.736;2023-03-21T14:34:21;27.00;66.40
12268;DHT22;6196;48.398;11.736;2023-03-21T14:36:49;28.10;62.20
12268;DHT22;6196;48.398;11.736;2023-03-21T14:39:29;28.20;62.80
12268;DHT22;6196;48.398;11.736;2023-03-21T14:42:03;27.30;64.00
12268;DHT22;6196;48.398;11.736;2023-03-21T14:44:47;27.30;64.90
12268;DHT22;6196;48.398;11.736;2023-03-21T14:47:26;27.30;64.40
12268;DHT22;6196;48.398;11.736;2023-03-21T14:49:55;26.40;63.90
12268;DHT22;6196;48.398;11.736;2023-03-21T14:52:25;26.00;65.60
12268;DHT22;6196;48.398;11.736;2023-03-21T14:54:59;25.80;64.40
12268;DHT22;6196;48.398;11.736;2023-03-21T14:57:30;26.00;65.10
12268;DHT22;6196;48.398;11.736;2023-03-21T15:00:03;26.50;64.70
12268;DHT22;6196;48.398;11.736;2023-03-21T15:02:39;26.40;63.70
12268;DHT22;6196;48.398;11.736;2023-03-21T15:05:30;26.10;63.90
12268;DHT22;6196;48.398;11.736;2023-03-21T15:08:07;24.90;66.20
12268;DHT22;6196;48.398;11.736;2023-03-21T15:10:39;24.30;68.60
12268;DHT22;6196;48.398;11.736;2023-03-21T15:13:15;24.20;69.20
12268;DHT22;6196;48.398;11.736;2023-03-21T15:15:45;24.30;69.20
12268;DHT22;6196;48.398;11.736;2023-03-21T15:18:17;24.00;70.60
12268;DHT22;6196;48.398;11.736;2023-03-21T15:20:48;23.20;71.40
12268;DHT22;6196;48.398;11.736;2023-03-21T15:23:29;23.00;73.70
12268;DHT22;6196;48.398;11.736;2023-03-21T15:26:02;22.60;73.40
12268;DHT22;6196;48.398;11.736;2023-03-21T15:28:29;22.20;74.40
12268;DHT22;6196;48.398;11.736;2023-03-21T15:31:18;22.30;73.40
12268;DHT22;6196;48.398;11.736;2023-03-21T15:33:48;22.00;74.50
12268;DHT22;6196;48.398;11.736;2023-03-21T15:36:28;21.60;75.00
12268;DHT22;6196;48.398;11.736;2023-03-21T15:39:07;21.00;76.70
12268;DHT22;6196;48.398;11.736;2023-03-21T15:41:39;20.60;76.20
12268;DHT22;6196;48.398;11.736;2023-03-21T15:44:34;20.30;78.60
12268;DHT22;6196;48.398;11.736;2023-03-21T15:47:01;19.80;78.10
12268;DHT22;6196;48.398;11.736;2023-03-21T15:49:32;19.00;80.60
12268;DHT22;6196;48.398;11.736;2023-03-21T15:52:05;18.30;84.00
12268;DHT22;6196;48.398;11.736;2023-03-21T15:54:48;18.00;85.30
12268;DHT22;6196;48.398;11.736;2023-03-21T15:57:26;17.60;87.30
12268;DHT22;6196;48.398;11.736;2023-03-21T16:02:47;17.00;90.20
12268;DHT22;6196;48.398;11.736;2023-03-21T16:05:27;16.80;90.80
12268;DHT22;6196;48.398;11.736;2023-03-21T16:10:47;16.40;91.80
12268;DHT22;6196;48.398;11.736;2023-03-21T16:13:14;16.40;92.20
12268;DHT22;6196;48.398;11.736;2023-03-21T16:15:43;16.40;92.70
12268;DHT22;6196;48.398;11.736;2023-03-21T16:18:15;16.20;91.90
12268;DHT22;6196;48.398;11.736;2023-03-21T16:20:44;16.00;93.10
12268;DHT22;6196;48.398;11.736;2023-03-21T16:23:13;16.00;93.40
12268;DHT22;6196;48.398;11.736;2023-03-21T16:25:42;16.00;93.30
12268;DHT22;6196;48.398;11.736;2023-03-21T16:28:13;15.90;93.00
12268;DHT22;6196;48.398;11.736;2023-03-21T16:30:42;15.90;93.50
12268;DHT22;6196;48.398;11.736;2023-03-21T16:33:12;15.80;93.60
12268;DHT22;6196;48.398;11.736;2023-03-21T16:35:39;15.80;94.30
12268;DHT22;6196;48.398;11.736;2023-03-21T16:38:09;15.70;94.30
12268;DHT22;6196;48.398;11.736;2023-03-21T16:40:40;15.60;94.80
12268;DHT22;6196;48.398;11.736;2023-03-21T16:43:10;15.60;95.60
12268;DHT22;6196;48.398;11.736;2023-03-21T16:45:37;15.60;95.80
12268;DHT22;6196;48.398;11.736;2023-03-21T16:48:04;15.50;95.80
12268;DHT22;6196;48.398;11.736;2023-03-21T16:50:41;15.50;96.70
12268;DHT22;6196;48.398;11.736;2023-03-21T16:53:08;15.40;96.70
12268;DHT22;6196;48.398;11.736;2023-03-21T16:55:36;15.40;97.40
12268;DHT22;6196;48.398;11.736;2023-03-21T16:58:05;15.40;98.50
12268;DHT22;6196;48.398;11.736;2023-03-21T17:00:32;15.30;99.20
12268;DHT22;6196;48.398;11.736;2023-03-21T17:03:01;15.30;99.40
12268;DHT22;6196;48.398;11.736;2023-03-21T17:05:34;15.20;99.90
12268;DHT22;6196;48.398;11.736;2023-03-21T17:08:01;15.00;99.90
12268;DHT22;6196;48.398;11.736;2023-03-21T17:10:30;15.00;99.90
12268;DHT22;6196;48.398;11.736;2023-03-21T17:12:58;14.90;99.90
12268;DHT22;6196;48.398;11.736;2023-03-21T17:15:25;14.90;99.90
12268;DHT22;6196;48.398;11.736;2023-03-21T17:17:52;14.70;99.90
12268;DHT22;6196;48.398;11.736;2023-03-21T17:20:24;14.60;99.90
12268;DHT22;6196;48.398;11.736;2023-03-21T17:22:53;14.50;99.90
12268;DHT22;6196;48.398;11.736;2023-03-21T17:25:20;14.40;99.90
12268;DHT22;6196;48.398;11.736;2023-03-21T17:27:48;14.30;99.90
12268;DHT22;6196;48.398;11.736;2023-03-21T17:30:28;14.20;99.90
12268;DHT22;6196;48.398;11.736;2023-03-21T17:32:57;14.10;99.90
12268;DHT22;6196;48.398;11.736;2023-03-21T17:35:25;14.10;99.90
12268;DHT22;6196;48.398;11.736;2023-03-21T17:37:53;14.00;99.90
12268;DHT22;6196;48.398;11.736;2023-03-21T17:40:29;13.90;99.90
12268;DHT22;6196;48.398;11.736;2023-03-21T17:42:58;13.80;99.90
12268;DHT22;6196;48.398;11.736;2023-03-21T17:45:26;13.70;99.90